Time;durP1;ratioP1;P1;durP2;ratioP2;P2;SDS_P1;SDS_P2;PMS_P1;PMS_P2;Temp;Humidity;BMP_temperature;BMP_pressure;BME280_temperature;BME280_humidity;BME280_pressure;Samples;Min_cycle;Max_cycle;Signal;HPM_P1;HPM_P2
2022/06/09 00:00:46;;;;;;;;;;;;;;;26.61;54.37;97888.56;2060360;28;19930;-74
2022/06/09 00:01:49;;;;;;;;;;;;;;;26.61;53.04;97883.94;2065346;28;19929;-73
2022/06/09 00:02:53;;;;;;;;;;;;;;;26.62;53.10;97880.09;2065847;28;19983;-75
2022/06/09 00:03:56;;;;;;;;;;;;;;;26.61;53.55;97877.69;2060511;28;20473;-74
2022/06/09 00:04:58;;;;;;;;;;;;;;;26.61;53.10;97888.56;2062474;28;20454;-73
2022/06/09 00:05:59;;;;;;;;;;;;;;;26.63;53.52;97883.63;2055864;28;19929;-73
2022/06/09 00:07:06;;;;;;;;;;;;;;;26.62;54.65;97877.38;2060642;28;19929;-73
2022/06/09 00:08:07;;;;;;;;;;;;;;;26.62;52.80;97876.56;2060885;28;20350;-72
2022/06/09 00:09:08;;;;;;;;;;;;;;;26.63;53.21;97880.91;2041910;28;20004;-73
2022/06/09 00:10:11;;;;;;;;;;;;;;;26.63;53.38;97878.19;2043273;28;21180;-73
2022/06/09 00:11:14;;;;;;;;;;;;;;;26.62;53.34;97869.22;2052156;28;20221;-73
2022/06/09 00:12:16;;;;;;;;;;;;;;;26.63;53.93;97868.13;2063285;28;19937;-73
2022/06/09 00:13:16;;;;;;;;;;;;;;;26.64;53.28;97871.69;2063319;28;20481;-74
2022/06/09 00:14:19;;;;;;;;;;;;;;;26.63;53.39;97875.47;2058712;28;19984;-73
2022/06/09 00:15:20;;;;;;;;;;;;;;;26.63;53.93;97870.03;2057772;28;19926;-72
2022/06/09 00:16:22;;;;;;;;;;;;;;;26.63;53.38;97867.31;2061579;28;19930;-72
2022/06/09 00:17:23;;;;;;;;;;;;;;;26.62;54.08;97868.41;2058436;28;20204;-72
2022/06/09 00:18:25;;;;;;;;;;;;;;;26.61;53.68;97867.63;2056871;28;19937;-72
2022/06/09 00:19:26;;;;;;;;;;;;;;;26.62;53.34;97865.69;2060406;28;19930;-72
2022/06/09 00:20:28;;;;;;;;;;;;;;;26.62;53.77;97862.97;2063657;28;20025;-72
2022/06/09 00:21:28;;;;;;;;;;;;;;;26.62;53.49;97862.97;2060004;28;19929;-73
2022/06/09 00:22:31;;;;;;;;;;;;;;;26.63;53.75;97861.88;2057358;28;19934;-72
2022/06/09 00:23:32;;;;;;;;;;;;;;;26.62;53.25;97860.25;2057690;28;19940;-73
2022/06/09 00:24:34;;;;;;;;;;;;;;;26.62;53.86;97852.09;2061796;28;19935;-73
2022/06/09 00:25:35;;;;;;;;;;;;;;;26.61;53.92;97851.28;2059762;28;19930;-73
2022/06/09 00:26:37;;;;;;;;;;;;;;;26.62;53.93;97846.66;2062668;28;19979;-74
2022/06/09 00:27:38;;;;;;;;;;;;;;;26.61;52.60;97851.28;2055158;28;19952;-73
2022/06/09 00:28:39;;;;;;;;;;;;;;;26.62;54.42;97844.75;2060239;28;19976;-73
2022/06/09 00:29:40;;;;;;;;;;;;;;;26.61;53.47;97845.03;2058459;28;19958;-73
2022/06/09 00:30:42;;;;;;;;;;;;;;;26.63;54.52;97845.56;2060298;28;20198;-73
2022/06/09 00:31:42;;;;;;;;;;;;;;;26.62;54.52;97846.66;2057290;28;19933;-74
2022/06/09 00:32:47;;;;;;;;;;;;;;;26.62;53.72;97839.31;2059390;28;20412;-73
2022/06/09 00:33:47;;;;;;;;;;;;;;;26.63;53.95;97840.13;2060989;28;19934;-73
2022/06/09 00:34:49;;;;;;;;;;;;;;;26.62;53.70;97839.31;2060319;28;20575;-74
2022/06/09 00:35:50;;;;;;;;;;;;;;;26.61;54.16;97845.03;2055433;28;20224;-74
2022/06/09 00:36:51;;;;;;;;;;;;;;;26.62;54.19;97841.22;2060607;28;19933;-73
2022/06/09 00:37:55;;;;;;;;;;;;;;;26.63;53.98;97842.84;2056938;28;20191;-73
2022/06/09 00:38:57;;;;;;;;;;;;;;;26.61;54.19;97840.41;2060959;28;19991;-74
2022/06/09 00:39:59;;;;;;;;;;;;;;;26.62;53.79;97841.22;2059971;28;19964;-73
2022/06/09 00:41:03;;;;;;;;;;;;;;;26.64;53.98;97841.78;2054298;28;20282;-74
2022/06/09 00:42:05;;;;;;;;;;;;;;;26.62;53.69;97835.78;2059915;28;19969;-73
2022/06/09 00:43:08;;;;;;;;;;;;;;;26.63;54.19;97843.66;2062163;28;19929;-73
2022/06/09 00:44:13;;;;;;;;;;;;;;;26.63;54.45;97834.69;2056249;28;19929;-73
2022/06/09 00:45:26;;;;;;;;;;;;;;;26.61;54.37;97836.88;2058813;28;19956;-72
2022/06/09 00:46:28;;;;;;;;;;;;;;;26.62;53.19;97841.22;2056666;28;19934;-72
2022/06/09 00:47:33;;;;;;;;;;;;;;;26.62;53.72;97838.50;2059940;28;20518;-73
2022/06/09 00:48:41;;;;;;;;;;;;;;;26.62;54.04;97839.31;2058336;28;19930;-72
2022/06/09 00:49:44;;;;;;;;;;;;;;;26.62;54.63;97843.94;2057278;28;20020;-72
2022/06/09 00:50:46;;;;;;;;;;;;;;;26.62;54.33;97843.94;2065189;28;19937;-74
2022/06/09 00:51:49;;;;;;;;;;;;;;;26.60;54.53;97841.47;2062845;28;20016;-73
2022/06/09 00:52:53;;;;;;;;;;;;;;;26.60;55.24;97843.41;2065187;28;19976;-73
2022/06/09 00:54:01;;;;;;;;;;;;;;;26.60;54.97;97837.97;2062652;28;20395;-73
2022/06/09 00:55:06;;;;;;;;;;;;;;;26.60;54.23;97841.47;2061224;28;19933;-74
2022/06/09 00:56:10;;;;;;;;;;;;;;;26.61;54.28;97836.88;2061055;28;19929;-74
2022/06/09 00:57:13;;;;;;;;;;;;;;;26.61;53.88;97840.41;2061304;28;19933;-74
2022/06/09 00:58:17;;;;;;;;;;;;;;;26.61;54.73;97839.59;2065511;28;19983;-74
2022/06/09 00:59:21;;;;;;;;;;;;;;;26.59;54.41;97841.78;2058130;28;20422;-73
2022/06/09 01:00:23;;;;;;;;;;;;;;;26.59;54.49;97845.31;2058998;28;20406;-73
2022/06/09 01:01:28;;;;;;;;;;;;;;;26.61;54.09;97839.59;2062327;28;20117;-73
2022/06/09 01:02:29;;;;;;;;;;;;;;;26.61;54.21;97842.31;2062015;28;19933;-73
2022/06/09 01:03:41;;;;;;;;;;;;;;;26.61;54.57;97836.88;2065351;28;20270;-74
2022/06/09 01:04:42;;;;;;;;;;;;;;;26.59;53.31;97837.16;2065168;28;20016;-74
2022/06/09 01:05:44;;;;;;;;;;;;;;;26.60;54.54;97843.41;2055263;28;20398;-74
2022/06/09 01:06:49;;;;;;;;;;;;;;;26.60;54.21;97835.22;2054555;28;19930;-74
2022/06/09 01:07:52;;;;;;;;;;;;;;;26.60;54.37;97827.88;2057790;28;19929;-74
2022/06/09 01:08:58;;;;;;;;;;;;;;;26.59;54.16;97831.72;2060275;28;19933;-74
2022/06/09 01:10:00;;;;;;;;;;;;;;;26.60;54.39;97832.50;2057215;28;19930;-74
2022/06/09 01:11:01;;;;;;;;;;;;;;;26.59;54.78;97837.16;2062203;28;19933;-71
2022/06/09 01:12:19;;;;;;;;;;;;;;;26.59;55.07;97833.63;2058303;28;19930;-71
2022/06/09 01:13:21;;;;;;;;;;;;;;;26.59;54.23;97836.34;2059870;28;20445;-71
2022/06/09 01:14:23;;;;;;;;;;;;;;;26.60;53.76;97832.50;2043244;28;20532;-71
2022/06/09 01:15:31;;;;;;;;;;;;;;;26.59;54.71;97830.91;2053200;28;21145;-71
2022/06/09 01:16:38;;;;;;;;;;;;;;;26.58;54.07;97834.69;2060495;28;19941;-71
2022/06/09 01:17:44;;;;;;;;;;;;;;;26.58;54.61;97831.97;2060789;28;20213;-71
2022/06/09 01:18:48;;;;;;;;;;;;;;;26.59;54.52;97828.19;2061081;28;20396;-71
2022/06/09 01:20:00;;;;;;;;;;;;;;;26.58;54.64;97831.97;2056180;28;19948;-71
2022/06/09 01:21:06;;;;;;;;;;;;;;;26.56;54.43;97820.56;2062188;28;19975;-70
2022/06/09 01:22:23;;;;;;;;;;;;;;;26.58;54.72;97821.94;2061844;28;19934;-71
2022/06/09 01:23:42;;;;;;;;;;;;;;;26.58;55.01;97823.81;2053682;28;20389;-71
2022/06/09 01:25:01;;;;;;;;;;;;;;;26.59;54.10;97825.47;2060235;28;19929;-72
2022/06/09 01:26:18;;;;;;;;;;;;;;;26.60;54.52;97821.63;2063287;28;20404;-71
2022/06/09 01:27:33;;;;;;;;;;;;;;;26.57;54.76;97812.13;2046769;28;20439;-71
2022/06/09 01:28:51;;;;;;;;;;;;;;;26.57;54.12;97816.75;2060736;28;20294;-71
2022/06/09 01:30:06;;;;;;;;;;;;;;;26.58;54.48;97819.22;2060082;28;19933;-71
2022/06/09 01:31:11;;;;;;;;;;;;;;;26.57;55.06;97814.84;2060616;28;19926;-72
2022/06/09 01:32:16;;;;;;;;;;;;;;;26.57;55.13;97822.19;2060796;28;19937;-71
2022/06/09 01:33:21;;;;;;;;;;;;;;;26.56;54.51;97821.38;2059593;28;19936;-72
2022/06/09 01:34:25;;;;;;;;;;;;;;;26.57;54.16;97819.47;2055004;28;19960;-72
2022/06/09 01:35:28;;;;;;;;;;;;;;;26.58;54.63;97821.09;2051057;28;19937;-72
2022/06/09 01:36:33;;;;;;;;;;;;;;;26.58;54.12;97815.66;2058816;28;20544;-72
2022/06/09 01:37:36;;;;;;;;;;;;;;;26.58;54.59;97816.50;2062067;28;21173;-72
2022/06/09 01:38:45;;;;;;;;;;;;;;;26.57;53.76;97809.41;2060950;28;19929;-71
2022/06/09 01:39:47;;;;;;;;;;;;;;;26.59;54.70;97809.13;2061502;28;19936;-72
2022/06/09 01:40:48;;;;;;;;;;;;;;;26.59;53.94;97809.13;2064681;28;20313;-72
2022/06/09 01:41:49;;;;;;;;;;;;;;;26.59;54.52;97811.84;2062917;28;19925;-72
2022/06/09 01:42:52;;;;;;;;;;;;;;;26.59;54.60;97809.13;2062260;28;19929;-72
2022/06/09 01:43:54;;;;;;;;;;;;;;;26.56;54.52;97804.25;2060069;28;19929;-72
2022/06/09 01:44:57;;;;;;;;;;;;;;;26.56;54.69;97804.25;2055493;28;19972;-72
2022/06/09 01:46:03;;;;;;;;;;;;;;;26.57;54.35;97797.72;2058337;28;20375;-72
2022/06/09 01:47:05;;;;;;;;;;;;;;;26.55;54.82;97799.88;2062723;28;20311;-72
2022/06/09 01:48:09;;;;;;;;;;;;;;;26.56;53.63;97802.34;2061424;28;19936;-72
2022/06/09 01:49:13;;;;;;;;;;;;;;;26.56;54.48;97804.25;2058447;28;19933;-72
2022/06/09 01:50:18;;;;;;;;;;;;;;;26.58;54.29;97816.50;2062820;28;19929;-72
2022/06/09 01:51:20;;;;;;;;;;;;;;;26.56;53.99;97817.84;2062077;28;20935;-72
2022/06/09 01:52:22;;;;;;;;;;;;;;;26.58;54.08;97818.38;2058292;28;19968;-72
2022/06/09 01:53:26;;;;;;;;;;;;;;;26.57;54.03;97816.75;2043901;28;20419;-72
2022/06/09 01:54:30;;;;;;;;;;;;;;;26.58;53.48;97815.66;2058197;28;19937;-72
2022/06/09 01:55:32;;;;;;;;;;;;;;;26.60;53.80;97822.44;2063189;28;20298;-72
2022/06/09 01:56:39;;;;;;;;;;;;;;;26.58;53.10;97819.22;2063653;28;19933;-72
2022/06/09 01:57:41;;;;;;;;;;;;;;;26.58;53.36;97821.94;2061928;28;19938;-72
2022/06/09 01:58:44;;;;;;;;;;;;;;;26.57;52.82;97827.63;2057271;28;20383;-72
2022/06/09 01:59:46;;;;;;;;;;;;;;;26.56;53.27;97818.66;2062372;28;20429;-72
2022/06/09 02:00:49;;;;;;;;;;;;;;;26.58;52.72;97815.66;2058278;28;20016;-72
2022/06/09 02:01:53;;;;;;;;;;;;;;;26.56;52.96;97815.13;2062555;28;19930;-72
2022/06/09 02:03:01;;;;;;;;;;;;;;;26.56;53.45;97817.84;2061980;28;20012;-72
2022/06/09 02:04:04;;;;;;;;;;;;;;;26.56;53.53;97807.78;2062083;28;20186;-72
2022/06/09 02:05:08;;;;;;;;;;;;;;;26.55;53.27;97813.47;2061258;28;20041;-72
2022/06/09 02:06:10;;;;;;;;;;;;;;;26.55;53.59;97806.16;2058822;28;19929;-72
2022/06/09 02:07:13;;;;;;;;;;;;;;;26.56;53.53;97806.97;2056404;28;19936;-72
2022/06/09 02:08:15;;;;;;;;;;;;;;;26.56;53.37;97799.63;2056808;28;20116;-72
2022/06/09 02:09:17;;;;;;;;;;;;;;;26.56;54.04;97801.53;2058538;28;19926;-72
2022/06/09 02:10:19;;;;;;;;;;;;;;;26.56;53.66;97794.19;2059734;28;19933;-72
2022/06/09 02:11:22;;;;;;;;;;;;;;;26.57;53.71;97797.72;2061018;28;20439;-72
2022/06/09 02:12:24;;;;;;;;;;;;;;;26.57;54.05;97795.00;2061946;28;19933;-72
2022/06/09 02:13:27;;;;;;;;;;;;;;;26.56;53.79;97793.38;2058003;28;20184;-72
2022/06/09 02:14:29;;;;;;;;;;;;;;;26.56;54.29;97790.66;2058643;28;19933;-72
2022/06/09 02:15:33;;;;;;;;;;;;;;;26.54;54.72;97795.56;2059861;28;19942;-72
2022/06/09 02:16:33;;;;;;;;;;;;;;;26.54;53.98;97790.13;2060777;28;19936;-72
2022/06/09 02:17:42;;;;;;;;;;;;;;;26.54;54.38;97784.66;2060119;28;19968;-72
2022/06/09 02:18:45;;;;;;;;;;;;;;;26.55;53.81;97778.13;2063342;28;21213;-72
2022/06/09 02:19:48;;;;;;;;;;;;;;;26.54;54.10;97766.44;2061489;28;19929;-72
2022/06/09 02:20:52;;;;;;;;;;;;;;;26.54;54.59;97763.72;2064369;28;20125;-72
2022/06/09 02:21:54;;;;;;;;;;;;;;;26.54;53.91;97769.16;2065666;28;19937;-72
2022/06/09 02:22:54;;;;;;;;;;;;;;;26.55;53.75;97753.66;2066982;28;19929;-72
2022/06/09 02:23:56;;;;;;;;;;;;;;;26.55;53.42;97757.22;2056645;28;20378;-72
2022/06/09 02:24:56;;;;;;;;;;;;;;;26.56;54.20;97758.84;2068440;28;20328;-72
2022/06/09 02:25:58;;;;;;;;;;;;;;;26.56;53.46;97747.94;2061827;28;20368;-72
2022/06/09 02:26:58;;;;;;;;;;;;;;;26.56;54.78;97756.13;2058586;28;19983;-72
2022/06/09 02:28:00;;;;;;;;;;;;;;;26.56;53.07;97739.78;2063937;28;19976;-73
2022/06/09 02:29:01;;;;;;;;;;;;;;;26.56;53.59;97730.81;2067656;28;20397;-72
2022/06/09 02:30:05;;;;;;;;;;;;;;;26.55;54.52;97731.91;2063648;28;19935;-72
2022/06/09 02:31:05;;;;;;;;;;;;;;;26.52;54.60;97731.38;2059379;28;19933;-74
2022/06/09 02:32:07;;;;;;;;;;;;;;;26.52;54.85;97734.09;2064530;28;19929;-74
2022/06/09 02:33:08;;;;;;;;;;;;;;;26.52;55.18;97744.97;2064501;28;19929;-74
2022/06/09 02:34:11;;;;;;;;;;;;;;;26.52;55.49;97750.41;2062222;28;19929;-74
2022/06/09 02:35:11;;;;;;;;;;;;;;;26.52;55.34;97753.13;2060015;28;20443;-73
2022/06/09 02:36:13;;;;;;;;;;;;;;;26.52;55.25;97755.84;2060299;28;19929;-74
2022/06/09 02:37:13;;;;;;;;;;;;;;;26.54;54.90;97758.28;2061066;28;19933;-73
2022/06/09 02:38:15;;;;;;;;;;;;;;;26.56;54.22;97763.47;2062384;28;20347;-73
2022/06/09 02:39:15;;;;;;;;;;;;;;;26.55;55.21;97759.09;2063700;28;20383;-73
2022/06/09 02:40:17;;;;;;;;;;;;;;;26.56;54.95;97760.75;2058333;28;20040;-73
2022/06/09 02:41:18;;;;;;;;;;;;;;;26.55;55.21;97759.09;2062736;28;19932;-73
2022/06/09 02:42:19;;;;;;;;;;;;;;;26.54;54.61;97754.75;2060215;28;19929;-73
2022/06/09 02:43:20;;;;;;;;;;;;;;;26.55;55.03;97753.66;2063657;28;19929;-73
2022/06/09 02:44:22;;;;;;;;;;;;;;;26.53;54.49;97745.78;2062819;28;20176;-73
2022/06/09 02:45:23;;;;;;;;;;;;;;;26.52;54.45;97755.03;2060587;28;21181;-73
2022/06/09 02:46:24;;;;;;;;;;;;;;;26.54;54.79;97752.03;2062273;28;20007;-73
2022/06/09 02:47:25;;;;;;;;;;;;;;;26.54;55.10;97752.03;2063059;28;19929;-74
2022/06/09 02:48:27;;;;;;;;;;;;;;;26.52;54.68;97755.03;2063996;28;20308;-74
2022/06/09 02:49:29;;;;;;;;;;;;;;;26.54;54.36;97746.59;2055813;28;20051;-75
2022/06/09 02:50:31;;;;;;;;;;;;;;;26.53;54.72;97748.50;2063545;28;20378;-74
2022/06/09 02:51:33;;;;;;;;;;;;;;;26.52;53.84;97744.97;2065548;28;20544;-75
2022/06/09 02:52:34;;;;;;;;;;;;;;;26.54;54.67;97752.03;2063477;28;20519;-74
2022/06/09 02:53:35;;;;;;;;;;;;;;;26.54;54.48;97744.69;2058731;28;20397;-75
2022/06/09 02:54:36;;;;;;;;;;;;;;;26.55;54.23;97745.50;2063094;28;19935;-75
2022/06/09 02:55:37;;;;;;;;;;;;;;;26.52;54.60;97744.97;2061675;28;19936;-75
2022/06/09 02:56:39;;;;;;;;;;;;;;;26.52;55.02;97744.16;2064157;28;20472;-74
2022/06/09 02:57:39;;;;;;;;;;;;;;;26.52;54.72;97738.72;2064855;28;19930;-74
2022/06/09 02:58:41;;;;;;;;;;;;;;;26.51;54.52;97743.34;2061082;28;19934;-75
2022/06/09 02:59:42;;;;;;;;;;;;;;;26.50;54.78;97736.28;2059541;28;19934;-75
2022/06/09 03:00:44;;;;;;;;;;;;;;;26.50;54.93;97732.72;2062892;28;19929;-74
2022/06/09 03:01:44;;;;;;;;;;;;;;;26.52;54.68;97739.53;2061112;28;19929;-74
2022/06/09 03:02:52;;;;;;;;;;;;;;;26.52;54.68;97736.00;2056048;28;20585;-74
2022/06/09 03:03:52;;;;;;;;;;;;;;;26.55;54.33;97731.91;2054244;28;19932;-74
2022/06/09 03:04:55;;;;;;;;;;;;;;;26.56;54.94;97739.78;2067139;28;20508;-74
2022/06/09 03:05:56;;;;;;;;;;;;;;;26.56;54.87;97731.63;2057933;28;20279;-74
2022/06/09 03:06:57;;;;;;;;;;;;;;;26.58;54.67;97734.06;2065144;28;19933;-74
2022/06/09 03:07:58;;;;;;;;;;;;;;;26.56;55.07;97725.38;2068263;28;19929;-74
2022/06/09 03:09:00;;;;;;;;;;;;;;;26.57;54.94;97732.44;2063261;28;20465;-74
2022/06/09 03:10:00;;;;;;;;;;;;;;;26.56;55.01;97731.63;2064572;28;19937;-73
2022/06/09 03:11:02;;;;;;;;;;;;;;;26.57;55.01;97735.16;2064921;28;19936;-73
2022/06/09 03:12:03;;;;;;;;;;;;;;;26.58;55.01;97731.34;2061135;28;19934;-74
2022/06/09 03:13:05;;;;;;;;;;;;;;;26.57;54.45;97735.97;2048544;28;20027;-73
2022/06/09 03:14:05;;;;;;;;;;;;;;;26.58;54.80;97734.91;2061991;28;19945;-73
2022/06/09 03:15:10;;;;;;;;;;;;;;;26.58;54.91;97734.06;2062493;28;20029;-74
2022/06/09 03:16:13;;;;;;;;;;;;;;;26.58;54.88;97739.50;2066165;28;19965;-73
2022/06/09 03:17:14;;;;;;;;;;;;;;;26.57;54.62;97732.44;2060565;28;20171;-74
2022/06/09 03:18:15;;;;;;;;;;;;;;;26.60;54.83;97742.75;2066507;28;19929;-73
2022/06/09 03:19:17;;;;;;;;;;;;;;;26.60;54.94;97742.75;2058442;28;19988;-74
2022/06/09 03:20:20;;;;;;;;;;;;;;;26.57;55.11;97744.13;2061803;28;20757;-74
2022/06/09 03:21:21;;;;;;;;;;;;;;;26.57;54.68;97752.28;2060954;28;19929;-74
2022/06/09 03:22:22;;;;;;;;;;;;;;;26.56;54.69;97752.59;2063602;28;20271;-74
2022/06/09 03:23:23;;;;;;;;;;;;;;;26.55;55.05;97740.91;2067951;28;19929;-74
2022/06/09 03:24:24;;;;;;;;;;;;;;;26.55;55.25;97742.78;2067604;28;20481;-74
2022/06/09 03:25:26;;;;;;;;;;;;;;;26.57;55.00;97740.59;2065086;28;20044;-74
2022/06/09 03:26:26;;;;;;;;;;;;;;;26.57;54.66;97746.03;2063146;28;19930;-74
2022/06/09 03:27:28;;;;;;;;;;;;;;;26.57;55.11;97746.03;2060843;28;19929;-74
2022/06/09 03:28:29;;;;;;;;;;;;;;;26.58;54.64;97748.50;2065463;28;19935;-74
2022/06/09 03:29:30;;;;;;;;;;;;;;;26.58;54.50;97743.06;2062224;28;20435;-74
2022/06/09 03:30:31;;;;;;;;;;;;;;;26.58;54.84;97743.06;2064948;28;19938;-73
2022/06/09 03:31:33;;;;;;;;;;;;;;;26.58;55.15;97742.22;2063233;28;20311;-74
2022/06/09 03:32:33;;;;;;;;;;;;;;;26.58;55.06;97745.78;2061219;28;19934;-74
2022/06/09 03:33:35;;;;;;;;;;;;;;;26.56;55.14;97749.88;2063623;28;19988;-74
2022/06/09 03:34:36;;;;;;;;;;;;;;;26.56;54.76;97739.78;2061321;28;20216;-74
2022/06/09 03:35:39;;;;;;;;;;;;;;;26.60;55.20;97740.03;2066671;28;19929;-74
2022/06/09 03:36:43;;;;;;;;;;;;;;;26.60;54.65;97749.00;2062991;28;19945;-74
2022/06/09 03:37:43;;;;;;;;;;;;;;;26.59;55.04;97741.16;2065764;28;20016;-74
2022/06/09 03:38:45;;;;;;;;;;;;;;;26.58;55.10;97739.50;2061912;28;20400;-74
2022/06/09 03:39:46;;;;;;;;;;;;;;;26.60;55.27;97745.50;2063414;28;20473;-73
2022/06/09 03:40:47;;;;;;;;;;;;;;;26.60;55.43;97734.59;2062604;28;19930;-73
2022/06/09 03:41:48;;;;;;;;;;;;;;;26.59;55.24;97735.72;2062583;28;20024;-73
2022/06/09 03:42:50;;;;;;;;;;;;;;;26.61;55.44;97730.81;2060991;28;20828;-73
2022/06/09 03:43:51;;;;;;;;;;;;;;;26.61;55.33;97737.06;2062535;28;20478;-73
2022/06/09 03:44:52;;;;;;;;;;;;;;;26.60;55.35;97732.69;2060832;28;20115;-73
2022/06/09 03:45:54;;;;;;;;;;;;;;;26.60;54.81;97727.25;2063412;28;20338;-73
2022/06/09 03:46:54;;;;;;;;;;;;;;;26.59;55.24;97727.56;2062738;28;19934;-73
2022/06/09 03:47:56;;;;;;;;;;;;;;;26.59;55.08;97730.28;2066680;28;19995;-73
2022/06/09 03:48:57;;;;;;;;;;;;;;;26.59;55.00;97722.91;2063124;28;20867;-74
2022/06/09 03:49:58;;;;;;;;;;;;;;;26.60;54.99;97726.44;2063946;28;20012;-73
2022/06/09 03:51:00;;;;;;;;;;;;;;;26.57;55.23;97722.38;2066966;28;19929;-72
2022/06/09 03:52:02;;;;;;;;;;;;;;;26.58;55.18;97723.19;2064272;28;19973;-73
2022/06/09 03:53:02;;;;;;;;;;;;;;;26.57;55.02;97716.13;2064508;28;20941;-73
2022/06/09 03:54:04;;;;;;;;;;;;;;;26.56;54.97;97714.50;2063274;28;19983;-73
2022/06/09 03:55:05;;;;;;;;;;;;;;;26.57;55.07;97716.13;2061570;28;19969;-73
2022/06/09 03:56:07;;;;;;;;;;;;;;;26.56;54.94;97711.78;2065116;28;20610;-73
2022/06/09 03:57:09;;;;;;;;;;;;;;;26.56;55.10;97703.63;2063088;28;20425;-74
2022/06/09 03:58:10;;;;;;;;;;;;;;;26.52;55.48;97706.91;2064021;28;19964;-73
2022/06/09 03:59:11;;;;;;;;;;;;;;;26.52;55.54;97701.47;2060601;28;19937;-74
2022/06/09 04:00:16;;;;;;;;;;;;;;;26.52;55.14;97704.19;2064202;28;20013;-74
2022/06/09 04:01:18;;;;;;;;;;;;;;;26.54;55.41;97708.53;2065393;28;20474;-74
2022/06/09 04:02:19;;;;;;;;;;;;;;;26.56;55.45;97709.06;2064406;28;19939;-74
2022/06/09 04:03:20;;;;;;;;;;;;;;;26.57;55.40;97708.78;2061710;28;20410;-74
2022/06/09 04:04:21;;;;;;;;;;;;;;;26.57;55.16;97707.97;2060314;28;19925;-74
2022/06/09 04:05:22;;;;;;;;;;;;;;;26.59;54.98;97708.50;2057281;28;20395;-74
2022/06/09 04:06:26;;;;;;;;;;;;;;;26.58;55.55;97709.59;2065384;28;19929;-73
2022/06/09 04:07:26;;;;;;;;;;;;;;;26.58;55.53;97709.59;2060563;28;19929;-74
2022/06/09 04:08:28;;;;;;;;;;;;;;;26.59;55.37;97706.59;2061736;28;20072;-74
2022/06/09 04:09:29;;;;;;;;;;;;;;;26.60;55.23;97707.41;2055884;28;19937;-74
2022/06/09 04:10:32;;;;;;;;;;;;;;;26.58;55.08;97710.44;2057472;28;20007;-74
2022/06/09 04:11:33;;;;;;;;;;;;;;;26.58;55.39;97707.72;2059054;28;20094;-74
2022/06/09 04:12:34;;;;;;;;;;;;;;;26.59;55.32;97716.66;2062741;28;19961;-74
2022/06/09 04:13:36;;;;;;;;;;;;;;;26.60;54.96;97721.00;2059519;28;20144;-74
2022/06/09 04:14:37;;;;;;;;;;;;;;;26.58;55.48;97718.59;2063287;28;19931;-74
2022/06/09 04:15:39;;;;;;;;;;;;;;;26.56;55.37;97722.66;2056697;28;19988;-74
2022/06/09 04:16:41;;;;;;;;;;;;;;;26.56;55.27;97722.66;2059583;28;19941;-74
2022/06/09 04:17:43;;;;;;;;;;;;;;;26.56;55.24;97733.56;2060045;28;19936;-74
2022/06/09 04:18:45;;;;;;;;;;;;;;;26.57;55.28;97725.09;2060724;28;20476;-74
2022/06/09 04:19:46;;;;;;;;;;;;;;;26.55;55.35;97727.31;2063921;28;19937;-74
2022/06/09 04:20:47;;;;;;;;;;;;;;;26.55;55.77;97730.03;2057008;28;20932;-74
2022/06/09 04:21:50;;;;;;;;;;;;;;;26.55;55.77;97731.91;2057509;28;20020;-74
2022/06/09 04:22:51;;;;;;;;;;;;;;;26.56;55.24;97728.09;2064517;28;20024;-74
2022/06/09 04:23:52;;;;;;;;;;;;;;;26.56;55.76;97733.56;2061792;28;21017;-74
2022/06/09 04:24:53;;;;;;;;;;;;;;;26.54;55.64;97722.13;2053997;28;20003;-74
2022/06/09 04:25:55;;;;;;;;;;;;;;;26.55;55.47;97724.59;2059501;28;19933;-74
2022/06/09 04:26:56;;;;;;;;;;;;;;;26.54;55.28;97730.28;2061408;28;20640;-74
2022/06/09 04:27:57;;;;;;;;;;;;;;;26.56;55.05;97733.56;2053232;28;20007;-74
2022/06/09 04:28:58;;;;;;;;;;;;;;;26.56;55.11;97734.34;2060891;28;19936;-74
2022/06/09 04:29:59;;;;;;;;;;;;;;;26.55;55.71;97737.34;2059387;28;19925;-74
2022/06/09 04:31:01;;;;;;;;;;;;;;;26.55;55.56;97734.63;2059020;28;19929;-74
2022/06/09 04:32:01;;;;;;;;;;;;;;;26.52;55.41;97733.25;2057918;28;19929;-74
2022/06/09 04:33:03;;;;;;;;;;;;;;;26.55;55.74;97737.34;2058582;28;19964;-74
2022/06/09 04:34:04;;;;;;;;;;;;;;;26.54;55.20;97730.28;2059515;28;20869;-74
2022/06/09 04:35:06;;;;;;;;;;;;;;;26.56;55.40;97739.00;2056739;28;20020;-74
2022/06/09 04:36:07;;;;;;;;;;;;;;;26.55;55.42;97737.34;2056564;28;19929;-74
2022/06/09 04:37:10;;;;;;;;;;;;;;;26.56;55.67;97737.06;2057089;28;20030;-74
2022/06/09 04:38:12;;;;;;;;;;;;;;;26.55;55.56;97734.63;2062908;28;19944;-73
2022/06/09 04:39:13;;;;;;;;;;;;;;;26.54;55.50;97731.09;2059522;28;19929;-73
2022/06/09 04:40:14;;;;;;;;;;;;;;;26.53;55.49;97729.47;2060765;28;20126;-74
2022/06/09 04:41:16;;;;;;;;;;;;;;;26.55;55.26;97737.34;2060762;28;19940;-74
2022/06/09 04:42:16;;;;;;;;;;;;;;;26.55;55.51;97734.63;2060597;28;19929;-74
2022/06/09 04:43:18;;;;;;;;;;;;;;;26.55;55.46;97726.47;2057210;28;19934;-73
2022/06/09 04:44:19;;;;;;;;;;;;;;;26.56;55.41;97733.56;2054884;28;19936;-74
2022/06/09 04:45:20;;;;;;;;;;;;;;;26.57;55.63;97740.59;2059387;28;19940;-73
2022/06/09 04:46:22;;;;;;;;;;;;;;;26.59;55.09;97739.25;2058330;28;19988;-74
2022/06/09 04:47:23;;;;;;;;;;;;;;;26.58;55.43;97736.78;2058481;28;19929;-72
2022/06/09 04:48:25;;;;;;;;;;;;;;;26.58;55.55;97745.78;2063991;28;19931;-72
2022/06/09 04:49:25;;;;;;;;;;;;;;;26.59;55.45;97743.88;2055189;28;19929;-72
2022/06/09 04:50:27;;;;;;;;;;;;;;;26.59;55.30;97743.88;2058711;28;20151;-72
2022/06/09 04:51:27;;;;;;;;;;;;;;;26.57;55.34;97744.13;2060221;28;20413;-72
2022/06/09 04:52:30;;;;;;;;;;;;;;;26.56;55.29;97747.16;2061804;28;19933;-72
2022/06/09 04:53:32;;;;;;;;;;;;;;;26.55;55.47;97745.50;2059659;28;20522;-72
2022/06/09 04:54:34;;;;;;;;;;;;;;;26.56;55.58;97744.44;2060229;28;19936;-72
2022/06/09 04:55:35;;;;;;;;;;;;;;;26.54;55.66;97747.41;2062726;28;20537;-72
2022/06/09 04:56:37;;;;;;;;;;;;;;;26.55;55.66;97745.50;2060833;28;20020;-72
2022/06/09 04:57:38;;;;;;;;;;;;;;;26.56;55.41;97747.16;2059495;28;20928;-72
2022/06/09 04:58:39;;;;;;;;;;;;;;;26.54;55.65;97744.69;2058065;28;20716;-72
2022/06/09 04:59:40;;;;;;;;;;;;;;;26.52;55.79;97747.69;2060121;28;19937;-72
2022/06/09 05:00:41;;;;;;;;;;;;;;;26.52;55.43;97744.97;2063765;28;20662;-72
2022/06/09 05:01:42;;;;;;;;;;;;;;;26.55;55.29;97748.22;2056862;28;20291;-72
2022/06/09 05:02:44;;;;;;;;;;;;;;;26.53;55.35;97740.34;2064473;28;19933;-72
2022/06/09 05:03:45;;;;;;;;;;;;;;;26.53;55.33;97743.06;2064538;28;19930;-72
2022/06/09 05:04:46;;;;;;;;;;;;;;;26.53;55.72;97740.34;2063381;28;20347;-72
2022/06/09 05:05:48;;;;;;;;;;;;;;;26.54;55.41;97733.81;2060994;28;19929;-72
2022/06/09 05:06:48;;;;;;;;;;;;;;;26.55;55.68;97738.19;2058181;28;19929;-72
2022/06/09 05:07:51;;;;;;;;;;;;;;;26.55;55.48;97738.19;2060815;28;20956;-72
2022/06/09 05:08:53;;;;;;;;;;;;;;;26.57;55.79;97730.53;2060803;28;19974;-72
2022/06/09 05:09:55;;;;;;;;;;;;;;;26.58;55.51;97737.63;2046224;28;19952;-72
2022/06/09 05:10:57;;;;;;;;;;;;;;;26.57;55.47;97735.97;2063777;28;19929;-72
2022/06/09 05:11:57;;;;;;;;;;;;;;;26.58;54.49;97736.78;2032408;28;20386;-72
2022/06/09 05:14:18;;;;;;;;;;;;;;;26.29;53.71;97740.91;2060481;28;19933;-72
2022/06/09 05:15:20;;;;;;;;;;;;;;;26.25;53.58;97733.59;2060702;28;19964;-72
2022/06/09 05:16:21;;;;;;;;;;;;;;;26.16;53.88;97729.81;2060179;28;19933;-72
2022/06/09 05:17:22;;;;;;;;;;;;;;;26.13;53.48;97736.59;2050816;28;19929;-72
2022/06/09 05:18:24;;;;;;;;;;;;;;;26.13;53.24;97730.34;2058465;28;19926;-72
2022/06/09 05:19:26;;;;;;;;;;;;;;;26.10;53.46;97730.91;2050211;28;19933;-71
2022/06/09 05:20:27;;;;;;;;;;;;;;;26.08;53.53;97733.91;2052018;28;19990;-75
2022/06/09 05:21:29;;;;;;;;;;;;;;;26.02;53.83;97733.09;2044319;28;20264;-68
2022/06/09 05:22:29;;;;;;;;;;;;;;;25.84;54.66;97733.66;2051328;28;20210;-72
2022/06/09 05:23:33;;;;;;;;;;;;;;;25.84;54.73;97730.94;2054396;28;20024;-70
2022/06/09 05:24:33;;;;;;;;;;;;;;;25.78;54.52;97732.00;2048771;28;19983;-72
2022/06/09 05:25:35;;;;;;;;;;;;;;;25.70;54.88;97732.56;2053978;28;20613;-72
2022/06/09 05:26:36;;;;;;;;;;;;;;;25.68;54.64;97735.53;2057959;28;20304;-73
2022/06/09 05:27:38;;;;;;;;;;;;;;;25.68;54.67;97734.72;2043719;28;20052;-70